Time;durP1;ratioP1;P1;durP2;ratioP2;P2;SDS_P1;SDS_P2;PMS_P1;PMS_P2;Temp;Humidity;BMP_temperature;BMP_pressure;BME280_temperature;BME280_humidity;BME280_pressure;Samples;Min_cycle;Max_cycle;Signal;HPM_P1;HPM_P2
2022/04/24 00:01:08;;;;;;;7.20;5.00;;;9.90;99.90;;;;;;5015850;28;20483;-80
2022/04/24 00:03:34;;;;;;;9.65;6.25;;;9.90;99.90;;;;;;5015505;28;20053;-78
2022/04/24 00:06:00;;;;;;;7.43;5.60;;;9.80;99.90;;;;;;4983115;28;20060;-77
2022/04/24 00:08:25;;;;;;;7.15;5.57;;;9.80;99.90;;;;;;4999324;28;20364;-77
2022/04/24 00:10:51;;;;;;;7.55;5.43;;;9.80;99.90;;;;;;5016260;28;20371;-80
2022/04/24 00:13:17;;;;;;;7.38;5.00;;;9.80;99.90;;;;;;4982704;28;20054;-78
2022/04/24 00:15:42;;;;;;;7.75;5.13;;;9.80;99.90;;;;;;5015251;28;20050;-78
2022/04/24 00:18:08;;;;;;;6.70;5.15;;;9.70;99.90;;;;;;5015372;28;20387;-80
2022/04/24 00:20:34;;;;;;;10.23;4.88;;;9.70;99.90;;;;;;5015268;28;20042;-80
2022/04/24 00:23:00;;;;;;;7.90;5.00;;;9.70;99.90;;;;;;4999060;28;20049;-78
2022/04/24 00:25:26;;;;;;;7.05;4.63;;;9.60;99.90;;;;;;4982717;28;20065;-80
2022/04/24 00:27:52;;;;;;;10.32;5.35;;;9.60;99.90;;;;;;4999349;28;20049;-80
2022/04/24 00:30:18;;;;;;;8.13;5.40;;;9.60;99.90;;;;;;4999535;28;20046;-80
2022/04/24 00:32:43;;;;;;;7.97;5.55;;;9.60;99.90;;;;;;5015085;28;20501;-80
2022/04/24 00:35:09;;;;;;;6.88;4.82;;;9.50;99.90;;;;;;5015707;28;20406;-80
2022/04/24 00:37:35;;;;;;;9.50;5.07;;;9.50;99.90;;;;;;4982467;28;20042;-79
2022/04/24 00:40:00;;;;;;;7.55;4.90;;;9.50;99.90;;;;;;5014147;28;20092;-79
2022/04/24 00:42:26;;;;;;;7.80;4.90;;;9.50;99.90;;;;;;4998196;28;20058;-80
2022/04/24 00:44:52;;;;;;;7.97;5.45;;;9.40;99.90;;;;;;4998555;28;20054;-79
2022/04/24 00:47:20;;;;;;;6.28;4.80;;;9.40;99.90;;;;;;5014243;28;20050;-79
2022/04/24 00:49:46;;;;;;;7.05;4.93;;;9.30;99.90;;;;;;4999549;28;20085;-78
2022/04/24 00:52:12;;;;;;;7.25;5.03;;;9.40;99.90;;;;;;5014387;28;20513;-79
2022/04/24 00:54:39;;;;;;;6.47;4.90;;;9.30;99.90;;;;;;4999211;28;20063;-80
2022/04/24 00:57:10;;;;;;;9.27;5.18;;;9.30;99.90;;;;;;5015377;28;20132;-80
2022/04/24 00:59:39;;;;;;;7.68;4.93;;;9.20;99.90;;;;;;4998449;28;20054;-80
2022/04/24 01:02:06;;;;;;;6.45;4.65;;;9.10;99.90;;;;;;4998219;28;20046;-80
2022/04/24 01:04:36;;;;;;;7.50;5.00;;;9.10;99.90;;;;;;4997777;28;20054;-80
2022/04/24 01:07:03;;;;;;;8.43;5.13;;;9.10;99.90;;;;;;4997869;28;20072;-80
2022/04/24 01:09:32;;;;;;;8.02;5.20;;;9.10;99.90;;;;;;4998093;28;20053;-80
2022/04/24 01:11:58;;;;;;;7.43;4.93;;;9.00;99.90;;;;;;5014015;28;20042;-80
2022/04/24 01:14:26;;;;;;;8.20;4.97;;;9.00;99.90;;;;;;5015287;28;20072;-81
2022/04/24 01:16:52;;;;;;;6.32;4.80;;;9.00;99.90;;;;;;4997746;28;20451;-81
2022/04/24 01:19:18;;;;;;;7.30;4.80;;;9.00;99.90;;;;;;5014306;28;20060;-81
2022/04/24 01:21:46;;;;;;;6.68;4.95;;;9.00;99.90;;;;;;5013925;28;20042;-80
2022/04/24 01:24:13;;;;;;;6.82;4.72;;;8.90;99.90;;;;;;5014106;28;20133;-81
2022/04/24 01:26:39;;;;;;;7.68;5.05;;;8.90;99.90;;;;;;5014678;28;20048;-80
2022/04/24 01:29:05;;;;;;;6.75;4.90;;;8.90;99.90;;;;;;4981803;28;20058;-81
2022/04/24 01:31:34;;;;;;;7.97;4.60;;;8.80;99.90;;;;;;4997556;28;20467;-80
2022/04/24 01:34:00;;;;;;;5.72;4.43;;;8.80;99.90;;;;;;4997854;28;20046;-81
2022/04/24 01:36:26;;;;;;;7.05;4.80;;;8.70;99.90;;;;;;5013779;28;20045;-80
2022/04/24 01:38:52;;;;;;;6.95;4.78;;;8.70;99.90;;;;;;5013853;28;20042;-81
2022/04/24 01:41:18;;;;;;;7.10;5.03;;;8.60;99.90;;;;;;5013486;28;20560;-80
2022/04/24 01:43:44;;;;;;;6.90;4.68;;;9.00;99.90;;;;;;5013740;28;20050;-80
2022/04/24 01:46:11;;;;;;;5.85;4.90;;;8.60;99.90;;;;;;5014335;28;20088;-79
2022/04/24 01:48:37;;;;;;;7.50;4.68;;;8.50;99.90;;;;;;5013690;28;20133;-80
2022/04/24 01:51:07;;;;;;;7.50;5.03;;;8.60;99.90;;;;;;5013050;28;20133;-80
2022/04/24 01:53:33;;;;;;;6.22;4.72;;;8.50;99.90;;;;;;4997257;28;20089;-80
2022/04/24 01:56:01;;;;;;;7.97;4.70;;;8.40;99.90;;;;;;4997244;28;20057;-80
2022/04/24 01:58:27;;;;;;;7.03;4.90;;;8.40;99.90;;;;;;5013179;28;20108;-80
2022/04/24 02:00:53;;;;;;;7.05;5.00;;;8.20;99.90;;;;;;4997889;28;20058;-80
2022/04/24 02:03:20;;;;;;;7.38;4.72;;;8.20;99.90;;;;;;4980829;28;20042;-80
2022/04/24 02:05:46;;;;;;;8.52;5.10;;;8.10;99.90;;;;;;4997208;28;20478;-80
2022/04/24 02:08:12;;;;;;;9.20;5.55;;;8.00;99.90;;;;;;5013298;28;20056;-80
2022/04/24 02:10:38;;;;;;;8.38;4.43;;;7.90;99.90;;;;;;4997300;28;20208;-80
2022/04/24 02:13:04;;;;;;;8.80;4.95;;;7.80;99.90;;;;;;4997844;28;20136;-80
2022/04/24 02:15:30;;;;;;;7.93;5.13;;;7.80;99.90;;;;;;5013225;28;20509;-80
2022/04/24 02:17:56;;;;;;;6.82;5.00;;;7.70;99.90;;;;;;5013194;28;20045;-80
2022/04/24 02:20:22;;;;;;;7.30;5.43;;;7.70;99.90;;;;;;5013912;28;20048;-80
2022/04/24 02:22:49;;;;;;;7.60;4.95;;;7.60;99.90;;;;;;4996984;28;20046;-80
2022/04/24 02:25:15;;;;;;;6.32;4.78;;;7.60;99.90;;;;;;4996696;28;20399;-80
2022/04/24 02:27:41;;;;;;;8.30;5.15;;;7.50;99.90;;;;;;4996575;28;20046;-80
2022/04/24 02:30:07;;;;;;;7.57;4.65;;;7.90;99.90;;;;;;4996750;28;20452;-80
2022/04/24 02:32:33;;;;;;;7.32;4.68;;;7.40;99.90;;;;;;5013753;28;20104;-80
2022/04/24 02:34:59;;;;;;;7.03;5.00;;;7.40;99.90;;;;;;5013112;28;20042;-79
2022/04/24 02:37:26;;;;;;;6.68;5.05;;;7.40;99.90;;;;;;5013192;28;20050;-80
2022/04/24 02:39:52;;;;;;;7.40;4.75;;;7.40;99.90;;;;;;5013123;28;20490;-79
2022/04/24 02:42:18;;;;;;;6.93;4.75;;;7.30;99.90;;;;;;5012860;28;20121;-80
2022/04/24 02:44:44;;;;;;;7.47;4.50;;;7.30;99.90;;;;;;5012755;28;20061;-80
2022/04/24 02:47:10;;;;;;;8.57;5.40;;;7.20;99.90;;;;;;4996223;28;20104;-80
2022/04/24 02:49:36;;;;;;;6.43;4.43;;;7.20;99.90;;;;;;4996376;28;20046;-79
2022/04/24 02:52:02;;;;;;;7.80;5.68;;;7.20;99.90;;;;;;5012741;28;20045;-80
2022/04/24 02:54:28;;;;;;;7.05;4.68;;;7.20;99.90;;;;;;5012731;28;20111;-81
2022/04/24 02:56:54;;;;;;;7.20;4.70;;;7.40;99.90;;;;;;5012636;28;20140;-80
2022/04/24 02:59:19;;;;;;;6.18;4.55;;;7.30;99.90;;;;;;4996221;28;20046;-79
2022/04/24 03:01:45;;;;;;;9.13;5.38;;;7.10;99.90;;;;;;5012840;28;20379;-80
2022/04/24 03:04:12;;;;;;;7.30;4.65;;;7.20;99.90;;;;;;5014303;28;20135;-80
2022/04/24 03:06:38;;;;;;;5.35;4.07;;;7.10;99.90;;;;;;5000392;28;20136;-80
2022/04/24 03:09:05;;;;;;;7.75;4.47;;;7.00;99.90;;;;;;5016645;28;20461;-81
2022/04/24 03:11:31;;;;;;;7.05;4.40;;;7.10;99.90;;;;;;5016581;28;20054;-80
2022/04/24 03:13:57;;;;;;;7.03;4.57;;;7.00;99.90;;;;;;5016808;28;20116;-80
2022/04/24 03:16:22;;;;;;;6.85;4.82;;;7.00;99.90;;;;;;5016455;28;20050;-80
2022/04/24 03:18:48;;;;;;;7.80;4.93;;;7.00;99.90;;;;;;5016466;28;20053;-80
2022/04/24 03:21:14;;;;;;;7.40;4.63;;;7.00;99.90;;;;;;5000871;28;20042;-80
2022/04/24 03:23:39;;;;;;;7.10;4.38;;;7.00;99.90;;;;;;5016385;28;20145;-80
2022/04/24 03:26:05;;;;;;;5.88;4.57;;;7.00;99.90;;;;;;4999626;28;20050;-80
2022/04/24 03:28:32;;;;;;;7.63;4.47;;;6.90;99.90;;;;;;5016282;28;20490;-80
2022/04/24 03:30:57;;;;;;;6.25;4.43;;;6.90;99.90;;;;;;4999878;28;20053;-80
2022/04/24 03:33:23;;;;;;;7.78;4.60;;;7.00;99.90;;;;;;5016810;28;20421;-80
2022/04/24 03:35:49;;;;;;;6.85;4.40;;;6.80;99.90;;;;;;5015896;28;20050;-80
2022/04/24 03:38:14;;;;;;;7.75;5.75;;;7.00;99.90;;;;;;5016688;28;20056;-80
2022/04/24 03:40:40;;;;;;;6.97;5.07;;;6.70;99.90;;;;;;4999188;28;20056;-80
2022/04/24 03:43:06;;;;;;;6.85;4.75;;;6.70;99.90;;;;;;5016206;28;20048;-80
2022/04/24 03:45:32;;;;;;;7.80;4.90;;;6.70;99.90;;;;;;5000434;28;20054;-80
2022/04/24 03:47:58;;;;;;;6.35;5.05;;;6.70;99.90;;;;;;4983097;28;20050;-80
2022/04/24 03:50:23;;;;;;;7.43;4.68;;;6.90;99.90;;;;;;4983705;28;20049;-80
2022/04/24 03:52:49;;;;;;;7.25;4.78;;;6.70;99.90;;;;;;5016105;28;20086;-80
2022/04/24 03:55:15;;;;;;;6.70;4.78;;;7.00;99.90;;;;;;5015835;28;20073;-80
2022/04/24 03:57:41;;;;;;;7.90;4.90;;;6.70;99.90;;;;;;5015588;28;20129;-80
2022/04/24 04:00:10;;;;;;;7.65;4.80;;;6.60;99.90;;;;;;5000224;28;20160;-80
2022/04/24 04:02:46;;;;;;;8.15;5.35;;;6.60;99.90;;;;;;5015363;28;20042;-81
2022/04/24 04:05:13;;;;;;;7.05;4.97;;;6.60;99.90;;;;;;5015477;28;20387;-80
2022/04/24 04:07:39;;;;;;;6.50;4.88;;;6.60;99.90;;;;;;5015359;28;20133;-80
2022/04/24 04:10:06;;;;;;;7.15;4.85;;;6.50;99.90;;;;;;5015582;28;20046;-80
2022/04/24 04:12:32;;;;;;;6.85;4.65;;;6.50;99.90;;;;;;5016489;28;20482;-80
2022/04/24 04:15:01;;;;;;;5.93;4.03;;;6.40;99.90;;;;;;5014897;28;20050;-80
2022/04/24 04:17:27;;;;;;;8.05;4.72;;;6.40;99.90;;;;;;4998951;28;20046;-81
2022/04/24 04:19:52;;;;;;;7.65;5.13;;;6.40;99.90;;;;;;5015504;28;20084;-80
2022/04/24 04:22:19;;;;;;;10.98;5.25;;;6.40;99.90;;;;;;4999330;28;20042;-80
2022/04/24 04:24:44;;;;;;;8.20;5.70;;;6.40;99.90;;;;;;4998846;28;20474;-81
2022/04/24 04:27:10;;;;;;;8.52;4.45;;;6.40;99.90;;;;;;4998624;28;20092;-80
2022/04/24 04:29:36;;;;;;;7.40;5.10;;;6.40;99.90;;;;;;4999627;28;20091;-80
2022/04/24 04:32:02;;;;;;;8.60;4.93;;;6.30;99.90;;;;;;5015074;28;20086;-80
2022/04/24 04:34:28;;;;;;;10.23;5.65;;;6.30;99.90;;;;;;5014946;28;20046;-81
2022/04/24 04:36:54;;;;;;;7.55;4.82;;;6.30;99.90;;;;;;5015264;28;20054;-80
2022/04/24 04:39:20;;;;;;;8.25;5.38;;;6.70;99.90;;;;;;5015229;28;20038;-80
2022/04/24 04:41:46;;;;;;;6.43;4.80;;;6.20;99.90;;;;;;5014631;28;20399;-80
2022/04/24 04:44:12;;;;;;;8.55;6.05;;;6.80;99.90;;;;;;4999427;28;20049;-80
2022/04/24 04:46:38;;;;;;;7.45;5.20;;;6.30;99.90;;;;;;4982218;28;20056;-80
2022/04/24 04:49:04;;;;;;;8.07;5.38;;;6.20;99.90;;;;;;5015065;28;20038;-80
2022/04/24 04:51:30;;;;;;;9.68;5.65;;;6.30;99.90;;;;;;5015522;28;20492;-80
2022/04/24 04:53:56;;;;;;;6.32;4.60;;;6.40;99.90;;;;;;5014606;28;20042;-80
2022/04/24 04:56:22;;;;;;;7.80;5.18;;;6.30;99.90;;;;;;4982439;28;20057;-81
2022/04/24 04:58:48;;;;;;;7.15;5.20;;;6.40;99.90;;;;;;4982515;28;20066;-80
2022/04/24 05:01:14;;;;;;;7.88;5.70;;;6.50;99.90;;;;;;5014825;28;20057;-80
2022/04/24 05:03:40;;;;;;;7.70;5.13;;;6.50;99.90;;;;;;5014758;28;20046;-80
2022/04/24 05:06:06;;;;;;;9.40;5.68;;;6.70;99.90;;;;;;4998320;28;20049;-80
2022/04/24 05:08:32;;;;;;;7.60;5.00;;;7.40;99.90;;;;;;4998955;28;20185;-80
2022/04/24 05:10:59;;;;;;;7.55;5.07;;;6.90;99.90;;;;;;5014631;28;20127;-80
2022/04/24 05:13:25;;;;;;;8.27;5.88;;;7.00;99.90;;;;;;4998165;28;20368;-81
2022/04/24 05:15:50;;;;;;;7.10;5.38;;;7.10;99.90;;;;;;5015071;28;20049;-80
2022/04/24 05:18:16;;;;;;;6.78;5.43;;;7.60;99.90;;;;;;4997920;28;20136;-81
2022/04/24 05:20:43;;;;;;;8.55;5.30;;;7.40;99.90;;;;;;5014448;28;20049;-80
2022/04/24 05:23:08;;;;;;;8.10;5.30;;;7.50;99.90;;;;;;5014962;28;20045;-80
2022/04/24 05:25:35;;;;;;;7.75;5.35;;;7.60;99.90;;;;;;4982018;28;20136;-81
2022/04/24 05:28:05;;;;;;;7.07;5.43;;;7.70;99.90;;;;;;5013292;28;20061;-80
2022/04/24 05:30:32;;;;;;;7.07;4.57;;;7.80;99.90;;;;;;4997750;28;20136;-81
2022/04/24 05:32:58;;;;;;;9.65;5.10;;;8.00;99.90;;;;;;4997576;28;20196;-81
2022/04/24 05:35:24;;;;;;;6.45;5.18;;;8.10;99.90;;;;;;5013872;28;20467;-80
2022/04/24 05:37:50;;;;;;;9.38;6.15;;;8.20;99.90;;;;;;5013795;28;20054;-80
2022/04/24 05:40:17;;;;;;;8.55;4.95;;;8.20;99.90;;;;;;4997212;28;20491;-80
2022/04/24 05:42:49;;;;;;;6.80;5.03;;;8.30;99.90;;;;;;4998174;28;20042;-81
2022/04/24 05:45:18;;;;;;;7.00;4.78;;;8.40;99.90;;;;;;4997381;28;20054;-81
2022/04/24 05:47:45;;;;;;;8.25;5.05;;;8.50;99.90;;;;;;4997375;28;20454;-81
2022/04/24 05:50:12;;;;;;;8.70;4.88;;;8.40;99.90;;;;;;5013305;28;20046;-81
2022/04/24 05:52:37;;;;;;;8.07;5.13;;;8.40;99.90;;;;;;5013622;28;20439;-80
2022/04/24 05:55:03;;;;;;;7.53;5.00;;;8.50;99.90;;;;;;5013509;28;20077;-80
2022/04/24 05:57:29;;;;;;;6.78;4.80;;;8.50;99.90;;;;;;4997301;28;20097;-80
2022/04/24 05:59:55;;;;;;;7.50;5.20;;;8.50;99.90;;;;;;5013789;28;20112;-81
2022/04/24 06:02:20;;;;;;;7.78;5.63;;;8.50;99.90;;;;;;5013467;28;20490;-80
2022/04/24 06:04:46;;;;;;;5.70;4.43;;;8.60;99.90;;;;;;4997042;28;20041;-81
2022/04/24 06:07:12;;;;;;;7.47;5.03;;;8.70;99.90;;;;;;4965419;28;20099;-81
2022/04/24 06:09:38;;;;;;;7.18;5.03;;;8.70;99.90;;;;;;5013587;28;20491;-82
2022/04/24 06:12:04;;;;;;;6.72;4.70;;;8.80;99.90;;;;;;5013552;28;20109;-82
2022/04/24 06:14:29;;;;;;;6.13;4.07;;;8.80;99.90;;;;;;5013261;28;20050;-80
2022/04/24 06:16:55;;;;;;;10.13;5.32;;;8.90;99.90;;;;;;5013104;28;20064;-82
2022/04/24 06:19:21;;;;;;;7.97;4.63;;;9.00;99.90;;;;;;4996752;28;20102;-81
2022/04/24 06:21:47;;;;;;;6.65;4.78;;;9.00;99.90;;;;;;5012834;28;20050;-82
2022/04/24 06:24:13;;;;;;;9.25;4.63;;;9.10;99.90;;;;;;5013065;28;20048;-81
2022/04/24 06:26:39;;;;;;;7.63;4.95;;;9.10;99.90;;;;;;4996600;28;20042;-80
2022/04/24 06:29:05;;;;;;;7.18;5.03;;;9.20;99.90;;;;;;5013426;28;20042;-80
2022/04/24 06:31:31;;;;;;;6.35;4.38;;;9.20;99.90;;;;;;4996366;28;20095;-80
2022/04/24 06:33:56;;;;;;;6.38;5.10;;;9.30;99.90;;;;;;4996652;28;20050;-80
2022/04/24 06:36:22;;;;;;;6.50;4.25;;;9.40;99.90;;;;;;4996843;28;20037;-83
2022/04/24 06:38:48;;;;;;;7.47;4.95;;;9.50;99.90;;;;;;4996407;28;20060;-80
2022/04/24 06:41:13;;;;;;;7.15;4.65;;;9.60;99.90;;;;;;5013160;28;20046;-80
2022/04/24 06:43:39;;;;;;;8.38;5.00;;;9.70;99.90;;;;;;4996260;28;20053;-78
2022/04/24 06:46:05;;;;;;;7.25;4.88;;;9.80;99.90;;;;;;5012454;28;20046;-78
2022/04/24 06:48:30;;;;;;;5.60;4.05;;;9.80;99.90;;;;;;5013048;28;20045;-78
2022/04/24 06:50:56;;;;;;;6.68;4.70;;;9.80;99.90;;;;;;4997163;28;20050;-80
2022/04/24 06:53:23;;;;;;;6.30;4.40;;;9.90;99.90;;;;;;4980193;28;20129;-80
2022/04/24 06:55:50;;;;;;;8.05;5.00;;;9.90;99.90;;;;;;5012675;28;20054;-80
2022/04/24 06:58:18;;;;;;;7.53;4.38;;;10.00;99.90;;;;;;5012344;28;20112;-81
2022/04/24 07:00:45;;;;;;;7.75;4.53;;;10.10;99.90;;;;;;5012672;28;20140;-80
2022/04/24 07:03:20;;;;;;;6.80;4.40;;;10.10;99.90;;;;;;5012550;28;20044;-81
2022/04/24 07:05:47;;;;;;;7.37;4.60;;;10.10;99.90;;;;;;4996507;28;20046;-80
2022/04/24 07:08:13;;;;;;;6.95;5.00;;;10.10;99.90;;;;;;4995603;28;20044;-80
2022/04/24 07:10:39;;;;;;;6.82;4.57;;;10.00;99.90;;;;;;4997035;28;20042;-81
2022/04/24 07:13:05;;;;;;;6.68;4.50;;;10.00;99.90;;;;;;5012469;28;20475;-79
2022/04/24 07:15:36;;;;;;;7.13;4.97;;;10.10;99.90;;;;;;5012512;28;20057;-79
2022/04/24 07:18:03;;;;;;;7.47;4.22;;;10.20;99.90;;;;;;5013284;28;20068;-77
2022/04/24 07:20:29;;;;;;;7.93;4.28;;;10.30;99.90;;;;;;5013206;28;20088;-77
2022/04/24 07:23:00;;;;;;;6.20;4.38;;;10.40;99.90;;;;;;4995730;28;20095;-77
2022/04/24 07:25:28;;;;;;;7.50;4.20;;;10.50;99.90;;;;;;5013250;28;20379;-76
2022/04/24 07:27:54;;;;;;;4.90;3.78;;;10.60;99.90;;;;;;5012092;28;20042;-75
2022/04/24 07:30:21;;;;;;;9.35;5.03;;;10.80;99.90;;;;;;5013298;28;20053;-77
2022/04/24 07:32:54;;;;;;;5.97;4.13;;;11.00;99.90;;;;;;5011503;28;20516;-76
2022/04/24 07:35:22;;;;;;;6.28;4.00;;;11.20;99.90;;;;;;5012145;28;20053;-76
2022/04/24 07:37:49;;;;;;;5.80;4.10;;;11.20;99.90;;;;;;5012072;28;20485;-79
2022/04/24 07:40:17;;;;;;;5.57;3.70;;;11.40;99.90;;;;;;5012093;28;20050;-76
2022/04/24 07:42:47;;;;;;;7.20;3.95;;;11.50;99.90;;;;;;5012421;28;20060;-77
2022/04/24 07:45:18;;;;;;;5.03;3.40;;;11.60;99.90;;;;;;5012513;28;20081;-77
2022/04/24 07:47:47;;;;;;;6.65;4.00;;;11.70;99.90;;;;;;4995571;28;20042;-76
2022/04/24 07:50:14;;;;;;;7.35;3.80;;;11.70;99.90;;;;;;5014716;28;20155;-77
2022/04/24 07:52:40;;;;;;;5.95;3.35;;;11.80;99.90;;;;;;5017469;28;20396;-77
2022/04/24 07:55:06;;;;;;;5.93;3.60;;;11.90;99.90;;;;;;5016739;28;20058;-78
2022/04/24 07:57:32;;;;;;;6.95;3.85;;;11.90;99.90;;;;;;5015346;28;20116;-78
2022/04/24 07:59:58;;;;;;;6.50;4.10;;;12.00;99.90;;;;;;4999661;28;20046;-76
2022/04/24 08:02:24;;;;;;;5.35;3.30;;;12.10;99.90;;;;;;5016563;28;20054;-76
2022/04/24 08:04:49;;;;;;;7.28;3.92;;;12.20;99.90;;;;;;5015501;28;20053;-77
2022/04/24 08:07:15;;;;;;;6.55;3.72;;;12.20;99.90;;;;;;5015605;28;20387;-82
2022/04/24 08:09:42;;;;;;;5.00;3.65;;;12.30;99.90;;;;;;5015399;28;20056;-79
2022/04/24 08:12:08;;;;;;;6.50;3.08;;;12.40;99.90;;;;;;5016213;28;20058;-77
2022/04/24 08:14:34;;;;;;;7.07;3.00;;;12.40;99.90;;;;;;5015180;28;20077;-77
2022/04/24 08:16:59;;;;;;;5.28;3.15;;;12.50;99.90;;;;;;5015382;28;20050;-76
2022/04/24 08:19:25;;;;;;;6.15;3.20;;;12.50;99.90;;;;;;5015057;28;20053;-77
2022/04/24 08:21:51;;;;;;;4.47;2.60;;;12.70;99.90;;;;;;5015243;28;20042;-78
2022/04/24 08:24:16;;;;;;;4.65;3.17;;;12.80;99.90;;;;;;5016372;28;20049;-80
2022/04/24 08:26:42;;;;;;;4.07;2.28;;;12.90;99.90;;;;;;4982637;28;20117;-80
2022/04/24 08:29:08;;;;;;;4.13;2.70;;;13.10;99.90;;;;;;5015084;28;20053;-77
2022/04/24 08:31:33;;;;;;;3.88;2.45;;;13.20;99.90;;;;;;5014824;28;20042;-79
2022/04/24 08:33:59;;;;;;;3.97;2.63;;;13.30;99.90;;;;;;5014864;28;20081;-76
2022/04/24 08:36:25;;;;;;;4.55;2.45;;;13.40;99.90;;;;;;5015834;28;20116;-78
2022/04/24 08:38:50;;;;;;;5.90;2.40;;;13.60;99.90;;;;;;4982149;28;20064;-78
2022/04/24 08:41:21;;;;;;;3.20;2.00;;;13.80;99.90;;;;;;5015872;28;20049;-77
2022/04/24 08:43:47;;;;;;;4.40;2.15;;;13.90;99.90;;;;;;5016154;28;20061;-76
2022/04/24 08:46:14;;;;;;;3.83;2.08;;;14.10;99.90;;;;;;5014503;28;20046;-78
2022/04/24 08:48:41;;;;;;;3.65;2.28;;;14.20;99.90;;;;;;4998220;28;20092;-79
2022/04/24 08:51:10;;;;;;;4.28;2.28;;;14.20;99.90;;;;;;5014325;28;20053;-78
2022/04/24 08:53:36;;;;;;;3.42;2.20;;;14.30;99.90;;;;;;5014874;28;20061;-80
2022/04/24 08:56:02;;;;;;;3.28;1.75;;;14.40;99.90;;;;;;5014603;28;20053;-77
2022/04/24 08:58:28;;;;;;;4.72;2.28;;;14.40;99.90;;;;;;5014223;28;20119;-79
2022/04/24 09:00:53;;;;;;;4.43;2.10;;;14.50;99.90;;;;;;4982107;28;20061;-80
2022/04/24 09:03:19;;;;;;;3.58;2.05;;;14.50;99.90;;;;;;5014523;28;20041;-79
2022/04/24 09:05:45;;;;;;;4.15;2.20;;;14.60;99.90;;;;;;5014625;28;20556;-78
2022/04/24 09:08:13;;;;;;;5.15;2.10;;;14.70;99.90;;;;;;5014112;28;20041;-78
2022/04/24 09:10:55;;;;;;;5.00;2.42;;;14.90;99.90;;;;;;5014401;28;20491;-78
2022/04/24 09:16:31;;;;;;;3.75;2.22;;;15.20;99.90;;;;;;5015052;28;20349;-79
2022/04/24 09:18:57;;;;;;;3.72;1.98;;;15.30;99.90;;;;;;5015857;28;20085;-77
2022/04/24 09:21:24;;;;;;;3.53;2.28;;;15.30;99.90;;;;;;5014503;28;20401;-78
2022/04/24 09:23:50;;;;;;;4.32;2.30;;;15.50;99.90;;;;;;4997767;28;20115;-77
2022/04/24 09:26:16;;;;;;;4.15;2.10;;;15.60;99.90;;;;;;4997908;28;20481;-79
2022/04/24 09:28:42;;;;;;;3.08;2.15;;;15.70;99.90;;;;;;4998484;28;20050;-78
2022/04/24 09:31:08;;;;;;;3.35;2.30;;;15.60;99.90;;;;;;5014781;28;20064;-78
2022/04/24 09:33:36;;;;;;;3.60;2.20;;;15.70;99.90;;;;;;5013742;28;20049;-81
2022/04/24 09:36:02;;;;;;;4.43;1.95;;;15.70;99.90;;;;;;5014096;28;20128;-78
2022/04/24 09:38:28;;;;;;;3.42;1.95;;;15.90;99.90;;;;;;4997920;28;20112;-76
2022/04/24 09:40:54;;;;;;;3.72;1.73;;;16.00;99.90;;;;;;5015403;28;20505;-78
2022/04/24 09:43:20;;;;;;;3.03;1.67;;;16.10;99.90;;;;;;5014044;28;20046;-77
2022/04/24 09:45:53;;;;;;;4.47;1.88;;;16.20;99.90;;;;;;5013743;28;20058;-79
2022/04/24 09:48:21;;;;;;;5.20;2.40;;;16.20;99.90;;;;;;4997649;28;20038;-80
2022/04/24 09:50:50;;;;;;;3.63;1.88;;;16.30;99.90;;;;;;5013689;28;20042;-79
2022/04/24 09:53:19;;;;;;;3.00;2.15;;;16.40;99.90;;;;;;5013920;28;20046;-79
2022/04/24 09:55:45;;;;;;;3.63;2.13;;;16.50;99.90;;;;;;5013485;28;20049;-79
2022/04/24 09:58:15;;;;;;;4.00;2.30;;;16.60;99.90;;;;;;5013372;28;20132;-78
2022/04/24 10:00:41;;;;;;;4.68;2.30;;;16.80;99.90;;;;;;4997464;28;20061;-80
2022/04/24 10:03:09;;;;;;;5.38;2.65;;;16.80;99.90;;;;;;4996753;28;20050;-77
2022/04/24 10:05:38;;;;;;;3.95;2.60;;;16.90;99.90;;;;;;4997069;28;20443;-79
2022/04/24 10:08:06;;;;;;;3.72;2.42;;;16.90;99.90;;;;;;4997010;28;20120;-78
2022/04/24 10:10:32;;;;;;;4.65;2.17;;;16.90;99.90;;;;;;4997749;28;20050;-78
2022/04/24 10:13:01;;;;;;;3.35;2.35;;;17.00;99.90;;;;;;5012516;28;20056;-78
2022/04/24 10:15:29;;;;;;;4.25;2.67;;;17.10;99.90;;;;;;5013214;28;20481;-79
2022/04/24 10:17:55;;;;;;;4.05;2.30;;;17.20;99.90;;;;;;5013257;28;20487;-80
2022/04/24 10:20:43;;;;;;;4.45;2.58;;;17.30;99.90;;;;;;5013175;28;20095;-77
2022/04/24 10:23:10;;;;;;;3.33;2.38;;;17.30;99.90;;;;;;5014171;28;20064;-78
2022/04/24 10:25:41;;;;;;;3.75;1.98;;;17.30;99.90;;;;;;5012926;28;20077;-80
2022/04/24 10:28:16;;;;;;;4.38;2.10;;;17.40;99.90;;;;;;5012879;28;20057;-76
2022/04/24 10:30:44;;;;;;;3.75;1.90;;;17.30;99.90;;;;;;5013585;28;20560;-77
2022/04/24 10:33:18;;;;;;;4.95;2.25;;;17.40;99.90;;;;;;5013798;28;20057;-77
2022/04/24 10:35:51;;;;;;;4.05;2.20;;;17.50;99.90;;;;;;5012969;28;20093;-79
2022/04/24 10:38:18;;;;;;;3.53;1.98;;;17.50;99.90;;;;;;5012814;28;20291;-79
2022/04/24 10:41:07;;;;;;;3.83;2.10;;;17.60;99.90;;;;;;5012828;28;20057;-80
2022/04/24 10:43:46;;;;;;;4.22;2.00;;;17.60;99.90;;;;;;5012786;28;20061;-79
2022/04/24 10:46:33;;;;;;;4.60;2.20;;;17.70;99.90;;;;;;5013025;28;20058;-78
2022/04/24 10:49:13;;;;;;;3.78;2.58;;;17.70;99.90;;;;;;5012651;28;20491;-79
2022/04/24 10:51:41;;;;;;;2.60;1.70;;;17.80;99.90;;;;;;4996955;28;20092;-80
2022/04/24 10:54:08;;;;;;;3.20;1.90;;;17.80;99.90;;;;;;5012831;28;20050;-79
2022/04/24 10:56:35;;;;;;;4.10;1.95;;;17.70;99.90;;;;;;5012318;28;20053;-81
2022/04/24 10:59:15;;;;;;;3.97;2.10;;;17.60;99.90;;;;;;5012164;28;20061;-79
2022/04/24 11:01:57;;;;;;;5.00;2.30;;;17.50;99.90;;;;;;5014197;28;20137;-77
2022/04/24 11:04:25;;;;;;;4.40;2.10;;;17.60;99.90;;;;;;5013637;28;20069;-79
2022/04/24 11:06:58;;;;;;;3.30;1.80;;;17.70;99.90;;;;;;4996650;28;20065;-79
2022/04/24 11:09:30;;;;;;;5.35;2.03;;;17.90;99.90;;;;;;5013580;28;20053;-78
2022/04/24 11:11:58;;;;;;;3.95;2.03;;;18.00;99.90;;;;;;4996528;28;20046;-79
2022/04/24 11:14:27;;;;;;;2.90;1.83;;;18.00;99.90;;;;;;5012582;28;20058;-79
2022/04/24 11:16:56;;;;;;;3.38;2.00;;;18.00;99.90;;;;;;5012572;28;20085;-77
2022/04/24 11:19:25;;;;;;;3.90;1.88;;;18.10;99.90;;;;;;5012554;28;20049;-77
2022/04/24 11:22:01;;;;;;;3.90;2.10;;;18.10;99.90;;;;;;5012501;28;20480;-78
2022/04/24 11:24:31;;;;;;;3.22;1.92;;;17.90;99.90;;;;;;5012941;28;20085;-77
2022/04/24 11:27:01;;;;;;;2.95;1.75;;;17.70;99.90;;;;;;5016272;28;20045;-77
2022/04/24 11:29:26;;;;;;;4.03;1.50;;;17.80;99.90;;;;;;5016295;28;20456;-78
2022/04/24 11:31:53;;;;;;;4.07;2.13;;;17.90;99.90;;;;;;5016369;28;20132;-77
2022/04/24 11:34:24;;;;;;;4.57;1.90;;;18.00;99.90;;;;;;5016245;28;20054;-78
2022/04/24 11:36:54;;;;;;;4.60;2.22;;;18.10;99.90;;;;;;5016409;28;20224;-77
2022/04/24 11:39:20;;;;;;;3.65;2.13;;;18.10;99.90;;;;;;5016156;28;20099;-78
2022/04/24 11:41:46;;;;;;;3.75;2.28;;;18.10;99.90;;;;;;4999692;28;20133;-76
2022/04/24 11:52:46;;;;;;;4.55;2.10;;;18.20;99.90;;;;;;5016708;28;20072;-78
2022/04/24 11:55:23;;;;;;;3.60;2.17;;;18.50;99.90;;;;;;5016581;28;20049;-78
2022/04/24 11:58:00;;;;;;;3.97;2.15;;;18.70;99.90;;;;;;5016117;28;20061;-78
2022/04/24 12:00:37;;;;;;;3.67;2.00;;;18.70;99.90;;;;;;5015755;28;20056;-78
2022/04/24 12:03:05;;;;;;;4.20;2.20;;;18.80;99.90;;;;;;5016061;28;20073;-78
2022/04/24 12:05:32;;;;;;;4.40;2.20;;;18.70;99.90;;;;;;5015608;28;20046;-77
2022/04/24 12:07:58;;;;;;;4.13;2.13;;;18.50;99.90;;;;;;5016113;28;20084;-78
2022/04/24 12:10:24;;;;;;;3.55;2.05;;;18.20;99.90;;;;;;5015609;28;20054;-77
2022/04/24 12:12:51;;;;;;;4.72;2.53;;;18.30;99.90;;;;;;5016734;28;20060;-79
2022/04/24 12:15:28;;;;;;;3.47;2.10;;;18.50;99.90;;;;;;5015669;28;20050;-77
2022/04/24 12:17:55;;;;;;;4.95;2.10;;;18.40;99.90;;;;;;4999656;28;20352;-76
2022/04/24 12:20:33;;;;;;;4.47;2.28;;;18.20;99.90;;;;;;5015330;28;20077;-77
2022/04/24 12:23:11;;;;;;;5.43;1.90;;;18.20;99.90;;;;;;5016160;28;20099;-77
2022/04/24 12:25:51;;;;;;;7.43;2.00;;;18.10;99.90;;;;;;4999077;28;20487;-78
2022/04/24 12:28:39;;;;;;;3.40;1.98;;;17.70;99.90;;;;;;5015130;28;20407;-77
2022/04/24 12:31:07;;;;;;;4.47;2.08;;;17.50;99.90;;;;;;5015478;28;20052;-78
2022/04/24 12:33:48;;;;;;;3.72;2.10;;;17.50;99.90;;;;;;5014805;28;20125;-76
2022/04/24 12:36:15;;;;;;;3.13;2.05;;;17.80;99.90;;;;;;5014885;28;20448;-77
2022/04/24 12:38:57;;;;;;;4.30;2.20;;;18.00;99.90;;;;;;5014813;28;20042;-78
2022/04/24 12:41:26;;;;;;;4.40;2.15;;;17.80;99.90;;;;;;4998942;28;20368;-77
2022/04/24 12:44:03;;;;;;;5.47;1.98;;;17.90;99.90;;;;;;5015877;28;20050;-76
2022/04/24 12:46:29;;;;;;;6.40;2.00;;;18.30;99.90;;;;;;4998565;28;20054;-77
2022/04/24 12:48:56;;;;;;;3.70;1.92;;;18.70;99.90;;;;;;4999004;28;20541;-79
2022/04/24 12:51:24;;;;;;;2.78;1.80;;;18.70;99.90;;;;;;5015630;28;20053;-78
2022/04/24 12:53:50;;;;;;;3.50;1.92;;;18.70;99.90;;;;;;5015532;28;20042;-78
2022/04/24 12:56:17;;;;;;;3.35;1.80;;;19.10;99.90;;;;;;5014378;28;20423;-80
2022/04/24 12:58:43;;;;;;;3.13;1.77;;;19.50;99.90;;;;;;5014701;28;20061;-77
2022/04/24 13:01:12;;;;;;;3.40;1.88;;;19.10;99.90;;;;;;4998229;28;20111;-76
2022/04/24 13:03:39;;;;;;;3.03;2.13;;;18.50;99.90;;;;;;5015415;28;20045;-79
2022/04/24 13:06:07;;;;;;;3.75;2.13;;;18.10;99.90;;;;;;5014383;28;20531;-77